Time;durP1;ratioP1;P1;durP2;ratioP2;P2;SDS_P1;SDS_P2;PMS_P1;PMS_P2;Temp;Humidity;BMP_temperature;BMP_pressure;BME280_temperature;BME280_humidity;BME280_pressure;Samples;Min_cycle;Max_cycle;Signal;HPM_P1;HPM_P2
2023/04/18 00:00:11;;;;;;;;;;;18.40;44.20;;;;;;4996987;28;20290;-53
2023/04/18 00:02:38;;;;;;;;;;;18.40;44.20;;;;;;5006914;28;19991;-53
2023/04/18 00:05:06;;;;;;;;;;;18.40;44.20;;;;;;5001634;28;19913;-53
2023/04/18 00:07:33;;;;;;;;;;;18.40;44.30;;;;;;5012353;28;20358;-53
2023/04/18 00:09:58;;;;;;;;;;;18.40;44.40;;;;;;4995853;28;19917;-53
2023/04/18 00:12:24;;;;;;;;;;;18.40;44.30;;;;;;5001385;28;19924;-53
2023/04/18 00:14:50;;;;;;;;;;;18.40;44.30;;;;;;4994624;28;19949;-53
2023/04/18 00:17:16;;;;;;;;;;;18.40;44.40;;;;;;4992228;28;19945;-53
2023/04/18 00:19:42;;;;;;;;;;;18.40;44.40;;;;;;5011900;28;20392;-53
2023/04/18 00:22:12;;;;;;;;;;;18.40;44.40;;;;;;5003991;28;20385;-53
2023/04/18 00:24:40;;;;;;;;;;;18.40;44.60;;;;;;4985787;28;19914;-53
2023/04/18 00:27:06;;;;;;;;;;;18.40;44.50;;;;;;5003709;28;20318;-53
2023/04/18 00:29:31;;;;;;;;;;;18.30;44.30;;;;;;4992417;28;19918;-53
2023/04/18 00:31:57;;;;;;;;;;;18.30;44.50;;;;;;5001425;28;20436;-53
2023/04/18 00:34:22;;;;;;;;;;;18.30;44.40;;;;;;5022362;28;19914;-53
2023/04/18 00:36:47;;;;;;;;;;;18.30;44.50;;;;;;4993280;28;19923;-53
2023/04/18 00:39:13;;;;;;;;;;;18.30;44.50;;;;;;5016694;28;20451;-52
2023/04/18 00:41:38;;;;;;;;;;;18.30;44.50;;;;;;5001116;28;19922;-53
2023/04/18 00:44:04;;;;;;;;;;;18.30;44.50;;;;;;4996125;28;20056;-53
2023/04/18 00:46:29;;;;;;;;;;;18.30;44.50;;;;;;5026497;28;19914;-53
2023/04/18 00:48:55;;;;;;;;;;;18.30;44.50;;;;;;5006339;28;19925;-53
2023/04/18 00:51:20;;;;;;;;;;;18.30;44.50;;;;;;4997847;28;19918;-53
2023/04/18 00:53:46;;;;;;;;;;;18.30;44.60;;;;;;4997976;28;19968;-53
2023/04/18 00:56:11;;;;;;;;;;;18.30;44.60;;;;;;4995379;28;20382;-53
2023/04/18 00:58:39;;;;;;;;;;;18.20;44.50;;;;;;4995958;28;20266;-53
2023/04/18 01:01:05;;;;;;;;;;;18.20;44.60;;;;;;5004275;28;19917;-52
2023/04/18 01:03:31;;;;;;;;;;;18.20;44.50;;;;;;4996964;28;20326;-53
2023/04/18 01:05:57;;;;;;;;;;;18.20;44.60;;;;;;5005563;28;19928;-53
2023/04/18 01:08:22;;;;;;;;;;;18.20;44.60;;;;;;4999421;28;19921;-53
2023/04/18 01:10:47;;;;;;;;;;;18.20;44.80;;;;;;4997401;28;19913;-53
2023/04/18 01:13:17;;;;;;;;;;;18.20;44.80;;;;;;4999806;28;19917;-53
2023/04/18 01:15:42;;;;;;;;;;;18.30;44.80;;;;;;5005438;28;19914;-52
2023/04/18 01:18:08;;;;;;;;;;;18.30;44.80;;;;;;5009169;28;19920;-53
2023/04/18 01:20:35;;;;;;;;;;;18.40;44.80;;;;;;4996272;28;19918;-53
2023/04/18 01:23:00;;;;;;;;;;;18.40;44.70;;;;;;5023529;28;19920;-52
2023/04/18 01:25:26;;;;;;;;;;;18.50;44.60;;;;;;5013888;28;19910;-53
2023/04/18 01:27:53;;;;;;;;;;;18.70;44.30;;;;;;5004195;28;19913;-52
2023/04/18 01:30:18;;;;;;;;;;;18.80;44.20;;;;;;4992513;28;19999;-52
2023/04/18 01:32:44;;;;;;;;;;;18.90;43.90;;;;;;4999662;28;20008;-53
2023/04/18 01:35:09;;;;;;;;;;;19.00;43.60;;;;;;4987675;28;19925;-53
2023/04/18 01:37:35;;;;;;;;;;;19.10;43.70;;;;;;4992643;28;19921;-53
2023/04/18 01:40:00;;;;;;;;;;;19.20;43.60;;;;;;5019358;28;20293;-53
2023/04/18 01:42:26;;;;;;;;;;;19.20;43.60;;;;;;4982071;28;19960;-53
2023/04/18 01:44:51;;;;;;;;;;;19.20;43.70;;;;;;4990693;28;19945;-52
2023/04/18 01:47:17;;;;;;;;;;;19.20;43.70;;;;;;4997588;28;19914;-52
2023/04/18 01:49:46;;;;;;;;;;;19.20;43.70;;;;;;4993345;28;20495;-53
2023/04/18 01:52:13;;;;;;;;;;;19.20;43.70;;;;;;4991962;28;19914;-53
2023/04/18 01:54:38;;;;;;;;;;;19.20;43.70;;;;;;4991887;28;19922;-53
2023/04/18 01:57:04;;;;;;;;;;;19.20;43.50;;;;;;5003109;28;19968;-53
2023/04/18 01:59:29;;;;;;;;;;;19.30;43.60;;;;;;4999592;28;20454;-53
2023/04/18 02:01:55;;;;;;;;;;;19.30;43.60;;;;;;5041073;28;19914;-53
2023/04/18 02:04:20;;;;;;;;;;;19.30;43.50;;;;;;5014651;28;20028;-53
2023/04/18 02:06:46;;;;;;;;;;;19.30;43.40;;;;;;5011955;28;20297;-53
2023/04/18 02:09:11;;;;;;;;;;;19.30;43.50;;;;;;5007319;28;19914;-53
2023/04/18 02:11:37;;;;;;;;;;;19.40;43.50;;;;;;4996003;28;19914;-53
2023/04/18 02:14:02;;;;;;;;;;;19.40;43.40;;;;;;5006724;28;19913;-52
2023/04/18 02:16:27;;;;;;;;;;;19.40;43.40;;;;;;5001548;28;20362;-53
2023/04/18 02:18:53;;;;;;;;;;;19.30;43.40;;;;;;5013755;28;19917;-52
2023/04/18 02:21:18;;;;;;;;;;;19.30;43.40;;;;;;5014100;28;19925;-53
2023/04/18 02:23:44;;;;;;;;;;;19.30;43.40;;;;;;5003304;28;19918;-53
2023/04/18 02:26:09;;;;;;;;;;;19.30;43.40;;;;;;4990414;28;20426;-53
2023/04/18 02:28:37;;;;;;;;;;;19.20;43.40;;;;;;5002892;28;19925;-53
2023/04/18 02:31:03;;;;;;;;;;;19.20;43.50;;;;;;5004929;28;20290;-53
2023/04/18 02:33:29;;;;;;;;;;;19.20;43.60;;;;;;5006861;28;19924;-53
2023/04/18 02:35:54;;;;;;;;;;;19.20;43.40;;;;;;5010907;28;19932;-53
2023/04/18 02:38:20;;;;;;;;;;;19.20;43.40;;;;;;5013354;28;19913;-53
2023/04/18 02:40:45;;;;;;;;;;;19.10;43.70;;;;;;4984322;28;19926;-52
2023/04/18 02:43:11;;;;;;;;;;;19.00;43.60;;;;;;5000054;28;20405;-53
2023/04/18 02:45:36;;;;;;;;;;;19.00;43.60;;;;;;4991749;28;20286;-52
2023/04/18 02:48:02;;;;;;;;;;;19.00;43.60;;;;;;4985851;28;19918;-53
2023/04/18 02:50:28;;;;;;;;;;;19.00;43.60;;;;;;4999320;28;20374;-53
2023/04/18 02:52:53;;;;;;;;;;;18.90;43.80;;;;;;5009236;28;19913;-53
2023/04/18 02:55:20;;;;;;;;;;;18.90;43.80;;;;;;5004783;28;19914;-52
2023/04/18 02:57:46;;;;;;;;;;;18.90;43.80;;;;;;5009069;28;19921;-53
2023/04/18 03:00:12;;;;;;;;;;;18.90;44.00;;;;;;5003721;28;19918;-53
2023/04/18 03:02:37;;;;;;;;;;;18.80;43.90;;;;;;4994730;28;20001;-53
2023/04/18 03:05:04;;;;;;;;;;;18.80;43.90;;;;;;4998415;28;20004;-54
2023/04/18 03:07:29;;;;;;;;;;;18.90;44.00;;;;;;5003914;28;19914;-53
2023/04/18 03:09:55;;;;;;;;;;;18.90;43.90;;;;;;5032089;28;19917;-53
2023/04/18 03:12:20;;;;;;;;;;;18.90;43.90;;;;;;5011248;28;19979;-53
2023/04/18 03:14:46;;;;;;;;;;;18.90;43.90;;;;;;5003464;28;19927;-53
2023/04/18 03:17:11;;;;;;;;;;;18.90;44.10;;;;;;5007128;28;19971;-53
2023/04/18 03:19:37;;;;;;;;;;;18.90;44.00;;;;;;4993622;28;19918;-53
2023/04/18 03:22:02;;;;;;;;;;;18.90;43.90;;;;;;4993786;28;19968;-53
2023/04/18 03:24:27;;;;;;;;;;;18.90;44.00;;;;;;4998058;28;20305;-54
2023/04/18 03:26:53;;;;;;;;;;;18.90;43.90;;;;;;4984299;28;19925;-53
2023/04/18 03:29:18;;;;;;;;;;;18.90;44.10;;;;;;4992878;28;20394;-52
2023/04/18 03:31:44;;;;;;;;;;;18.90;44.30;;;;;;4992633;28;19914;-53
2023/04/18 03:34:09;;;;;;;;;;;18.90;44.20;;;;;;4995501;28;19910;-53
2023/04/18 03:36:35;;;;;;;;;;;18.90;44.10;;;;;;5006617;28;20528;-53
2023/04/18 03:39:00;;;;;;;;;;;18.90;44.10;;;;;;5039330;28;20268;-53
2023/04/18 03:41:26;;;;;;;;;;;19.00;44.00;;;;;;4993427;28;20290;-53
2023/04/18 03:43:52;;;;;;;;;;;19.00;43.90;;;;;;4978583;28;19910;-52
2023/04/18 03:46:18;;;;;;;;;;;19.00;43.90;;;;;;4993327;28;19932;-53
2023/04/18 03:48:43;;;;;;;;;;;19.00;43.70;;;;;;5031990;28;19913;-53
2023/04/18 03:51:09;;;;;;;;;;;19.00;43.90;;;;;;5013537;28;19918;-53
2023/04/18 03:53:35;;;;;;;;;;;19.00;43.90;;;;;;4991149;28;20029;-53
2023/04/18 03:56:00;;;;;;;;;;;18.90;43.90;;;;;;4992547;28;19984;-53
2023/04/18 03:58:25;;;;;;;;;;;18.90;44.00;;;;;;4994028;28;19910;-53
2023/04/18 04:00:51;;;;;;;;;;;18.80;44.10;;;;;;4996125;28;20012;-53
2023/04/18 04:03:17;;;;;;;;;;;18.80;44.30;;;;;;4989686;28;19921;-52
2023/04/18 04:05:42;;;;;;;;;;;18.80;44.20;;;;;;4993084;28;19909;-53
2023/04/18 04:08:08;;;;;;;;;;;18.90;44.10;;;;;;4994742;28;19924;-53
2023/04/18 04:10:33;;;;;;;;;;;18.80;44.10;;;;;;5000515;28;19921;-53
2023/04/18 04:12:59;;;;;;;;;;;18.80;44.20;;;;;;4993016;28;19914;-53
2023/04/18 04:15:24;;;;;;;;;;;18.80;44.20;;;;;;5021282;28;19964;-52
2023/04/18 04:17:50;;;;;;;;;;;18.80;44.10;;;;;;4993703;28;19916;-53
2023/04/18 04:20:21;;;;;;;;;;;18.80;44.10;;;;;;4993410;28;19914;-53
2023/04/18 04:22:47;;;;;;;;;;;18.90;44.10;;;;;;4986258;28;19910;-53
2023/04/18 04:25:12;;;;;;;;;;;18.90;44.10;;;;;;5025439;28;19921;-53
2023/04/18 04:27:38;;;;;;;;;;;18.90;44.10;;;;;;4992573;28;19917;-53
2023/04/18 04:30:04;;;;;;;;;;;18.80;44.20;;;;;;4992241;28;20016;-53
2023/04/18 04:32:29;;;;;;;;;;;18.80;44.10;;;;;;4993273;28;19913;-53
2023/04/18 04:34:55;;;;;;;;;;;18.80;44.10;;;;;;5025116;28;19945;-53
2023/04/18 04:37:20;;;;;;;;;;;18.80;44.10;;;;;;5026092;28;19973;-53
2023/04/18 04:39:46;;;;;;;;;;;18.80;44.30;;;;;;4989304;28;19933;-53
2023/04/18 04:42:12;;;;;;;;;;;18.80;44.20;;;;;;5001240;28;19918;-53
2023/04/18 04:44:40;;;;;;;;;;;18.80;44.20;;;;;;5002392;28;19972;-53
2023/04/18 04:47:06;;;;;;;;;;;18.70;44.10;;;;;;4999640;28;19922;-53
2023/04/18 04:49:31;;;;;;;;;;;18.80;44.10;;;;;;4998515;28;20274;-52
2023/04/18 04:51:56;;;;;;;;;;;18.70;44.10;;;;;;5005654;28;20326;-53
2023/04/18 04:54:22;;;;;;;;;;;18.70;44.00;;;;;;5002460;28;20259;-53
2023/04/18 04:56:47;;;;;;;;;;;18.70;44.10;;;;;;4994554;28;20334;-52
2023/04/18 04:59:13;;;;;;;;;;;18.70;43.90;;;;;;4979617;28;19928;-53
2023/04/18 05:01:38;;;;;;;;;;;18.70;43.90;;;;;;4991745;28;19960;-53
2023/04/18 05:04:04;;;;;;;;;;;18.70;43.90;;;;;;5004832;28;20292;-53
2023/04/18 05:06:30;;;;;;;;;;;18.70;43.90;;;;;;4995363;28;19914;-53
2023/04/18 05:08:56;;;;;;;;;;;18.70;44.00;;;;;;4993245;28;19956;-53
2023/04/18 05:11:22;;;;;;;;;;;18.70;43.80;;;;;;5024071;28;19925;-53
2023/04/18 05:13:47;;;;;;;;;;;18.70;44.00;;;;;;5002596;28;19914;-52
2023/04/18 05:16:12;;;;;;;;;;;18.60;43.90;;;;;;4992439;28;19981;-53
2023/04/18 05:18:40;;;;;;;;;;;18.60;44.10;;;;;;5006046;28;20278;-53
2023/04/18 05:21:05;;;;;;;;;;;18.70;44.00;;;;;;4995684;28;20321;-53
2023/04/18 05:23:31;;;;;;;;;;;18.70;44.00;;;;;;4989631;28;19991;-52
2023/04/18 05:25:57;;;;;;;;;;;18.70;44.00;;;;;;4991378;28;19968;-53
2023/04/18 05:28:23;;;;;;;;;;;18.70;43.80;;;;;;4992765;28;19933;-53
2023/04/18 05:30:49;;;;;;;;;;;18.70;43.90;;;;;;5003775;28;19914;-53
2023/04/18 05:33:15;;;;;;;;;;;18.70;43.80;;;;;;4991884;28;19968;-53
2023/04/18 05:35:40;;;;;;;;;;;18.80;43.80;;;;;;4996529;28;19993;-53
2023/04/18 05:38:06;;;;;;;;;;;18.80;43.60;;;;;;4999313;28;19914;-53
2023/04/18 05:40:31;;;;;;;;;;;18.80;43.60;;;;;;4999062;28;19926;-53
2023/04/18 05:42:57;;;;;;;;;;;18.80;43.70;;;;;;5033179;28;19914;-53
2023/04/18 05:45:22;;;;;;;;;;;18.90;43.80;;;;;;4990488;28;20041;-53
2023/04/18 05:47:47;;;;;;;;;;;18.90;44.10;;;;;;4992243;28;19949;-54
2023/04/18 05:50:13;;;;;;;;;;;18.90;43.50;;;;;;5004584;28;19921;-54
2023/04/18 05:52:38;;;;;;;;;;;18.80;43.50;;;;;;5036030;28;19928;-54
2023/04/18 05:55:07;;;;;;;;;;;18.90;43.50;;;;;;4984181;28;19954;-54
2023/04/18 05:57:32;;;;;;;;;;;18.80;43.50;;;;;;5002884;28;20305;-53
2023/04/18 05:59:58;;;;;;;;;;;18.80;43.50;;;;;;5001578;28;19920;-54
2023/04/18 06:02:23;;;;;;;;;;;18.80;43.50;;;;;;4998078;28;19914;-54
2023/04/18 06:04:49;;;;;;;;;;;18.80;43.60;;;;;;5007243;28;20470;-54
2023/04/18 06:07:14;;;;;;;;;;;18.80;43.50;;;;;;4987503;28;20442;-54
2023/04/18 06:09:39;;;;;;;;;;;18.80;43.50;;;;;;4980899;28;19981;-54
2023/04/18 06:12:05;;;;;;;;;;;18.70;43.40;;;;;;4984177;28;20285;-53
2023/04/18 06:14:30;;;;;;;;;;;18.70;43.40;;;;;;4987999;28;20357;-54
2023/04/18 06:16:56;;;;;;;;;;;18.70;43.70;;;;;;4996052;28;19914;-54
2023/04/18 06:19:21;;;;;;;;;;;18.70;43.60;;;;;;4989838;28;19957;-54
2023/04/18 06:21:47;;;;;;;;;;;18.70;43.70;;;;;;5002647;28;20013;-54
2023/04/18 06:24:12;;;;;;;;;;;18.60;43.70;;;;;;4996765;28;20013;-54
2023/04/18 06:26:38;;;;;;;;;;;18.60;43.90;;;;;;4987762;28;20000;-54
2023/04/18 06:29:03;;;;;;;;;;;18.60;43.90;;;;;;4991095;28;19933;-53
2023/04/18 06:31:29;;;;;;;;;;;18.60;44.10;;;;;;4985668;28;20037;-54
2023/04/18 06:33:54;;;;;;;;;;;18.50;44.20;;;;;;5000325;28;20309;-54
2023/04/18 06:36:20;;;;;;;;;;;18.60;44.30;;;;;;4994930;28;19921;-54
2023/04/18 06:38:45;;;;;;;;;;;18.70;44.00;;;;;;4995225;28;20373;-54
2023/04/18 06:41:11;;;;;;;;;;;18.70;44.00;;;;;;4993036;28;20075;-54
2023/04/18 06:43:37;;;;;;;;;;;18.70;44.00;;;;;;5002324;28;19910;-54
2023/04/18 06:46:05;;;;;;;;;;;18.70;43.40;;;;;;5010724;28;19959;-54
2023/04/18 06:48:31;;;;;;;;;;;18.80;43.80;;;;;;5036426;28;19918;-54
2023/04/18 06:50:56;;;;;;;;;;;18.80;43.60;;;;;;4994545;28;20006;-54
2023/04/18 06:53:21;;;;;;;;;;;18.80;43.80;;;;;;5005409;28;19989;-54
2023/04/18 06:55:47;;;;;;;;;;;18.80;43.50;;;;;;4997313;28;20223;-54
2023/04/18 06:58:14;;;;;;;;;;;18.80;43.60;;;;;;4995190;28;19917;-54
2023/04/18 07:00:40;;;;;;;;;;;18.90;43.50;;;;;;4994049;28;19910;-54
2023/04/18 07:03:08;;;;;;;;;;;18.90;43.50;;;;;;5025815;28;20068;-54
2023/04/18 07:05:43;;;;;;;;;;;18.90;43.50;;;;;;4994858;28;20295;-54
2023/04/18 07:08:08;;;;;;;;;;;18.90;43.50;;;;;;4995529;28;20004;-54
2023/04/18 07:10:34;;;;;;;;;;;18.90;43.50;;;;;;4994843;28;20397;-55
2023/04/18 07:12:59;;;;;;;;;;;18.90;43.40;;;;;;4994683;28;19918;-54
2023/04/18 07:15:25;;;;;;;;;;;18.90;43.50;;;;;;4986959;28;20020;-54
2023/04/18 07:17:50;;;;;;;;;;;19.00;43.30;;;;;;4991473;28;19957;-54
2023/04/18 07:20:15;;;;;;;;;;;19.00;43.60;;;;;;4989482;28;19914;-55
2023/04/18 07:22:41;;;;;;;;;;;19.00;44.20;;;;;;4989789;28;20380;-54
2023/04/18 07:25:07;;;;;;;;;;;19.00;43.60;;;;;;4988494;28;20351;-55
2023/04/18 07:27:34;;;;;;;;;;;19.00;43.60;;;;;;4998324;28;19947;-54
2023/04/18 07:29:59;;;;;;;;;;;18.90;43.50;;;;;;4987211;28;20053;-54
2023/04/18 07:32:25;;;;;;;;;;;19.00;43.60;;;;;;5024850;28;20008;-54
2023/04/18 07:34:51;;;;;;;;;;;19.00;43.60;;;;;;4990055;28;19965;-54
2023/04/18 07:37:17;;;;;;;;;;;18.90;43.90;;;;;;4994270;28;19917;-56
2023/04/18 07:39:43;;;;;;;;;;;18.90;43.90;;;;;;4999155;28;19926;-55
2023/04/18 07:42:10;;;;;;;;;;;18.90;43.90;;;;;;4983923;28;20397;-54
2023/04/18 07:44:35;;;;;;;;;;;19.00;44.20;;;;;;4996025;28;20326;-54
2023/04/18 07:47:01;;;;;;;;;;;19.00;44.50;;;;;;4979926;28;20064;-54
2023/04/18 07:49:26;;;;;;;;;;;18.90;44.40;;;;;;4992292;28;19914;-54
2023/04/18 07:51:52;;;;;;;;;;;18.90;44.20;;;;;;5004619;28;20004;-55
2023/04/18 07:54:17;;;;;;;;;;;19.00;44.40;;;;;;5003027;28;19956;-54
2023/04/18 07:56:43;;;;;;;;;;;18.90;44.40;;;;;;4991753;28;20362;-54
2023/04/18 07:59:08;;;;;;;;;;;18.90;44.60;;;;;;4992538;28;19963;-53
2023/04/18 08:01:33;;;;;;;;;;;18.90;44.70;;;;;;4990389;28;20877;-54
2023/04/18 08:04:00;;;;;;;;;;;19.00;44.70;;;;;;4989366;28;20387;-53
2023/04/18 08:06:26;;;;;;;;;;;19.00;44.90;;;;;;4989433;28;20374;-53
2023/04/18 08:08:51;;;;;;;;;;;19.00;44.90;;;;;;4991297;28;19922;-53
2023/04/18 08:11:17;;;;;;;;;;;19.00;44.70;;;;;;4981237;28;19917;-53
2023/04/18 08:13:42;;;;;;;;;;;19.00;44.70;;;;;;4986824;28;19921;-54
2023/04/18 08:16:08;;;;;;;;;;;19.10;44.70;;;;;;4992161;28;20142;-54
2023/04/18 08:18:34;;;;;;;;;;;19.10;44.60;;;;;;4991003;28;19917;-53
2023/04/18 08:20:59;;;;;;;;;;;19.10;44.60;;;;;;4990116;28;19918;-53
2023/04/18 08:23:25;;;;;;;;;;;19.10;44.70;;;;;;4991371;28;19917;-53
2023/04/18 08:25:50;;;;;;;;;;;19.10;44.80;;;;;;4988037;28;19918;-52
2023/04/18 08:28:16;;;;;;;;;;;19.20;44.70;;;;;;4990698;28;19980;-53
2023/04/18 08:30:42;;;;;;;;;;;19.20;44.60;;;;;;4989551;28;19925;-53
2023/04/18 08:33:08;;;;;;;;;;;19.20;44.70;;;;;;4991538;28;20293;-53
2023/04/18 08:35:34;;;;;;;;;;;19.20;44.70;;;;;;4993919;28;19922;-53
2023/04/18 08:38:00;;;;;;;;;;;19.20;44.70;;;;;;5003515;28;20422;-53
2023/04/18 08:40:25;;;;;;;;;;;19.20;44.90;;;;;;4984620;28;19922;-53
2023/04/18 08:42:53;;;;;;;;;;;19.30;44.80;;;;;;4985977;28;19975;-53
2023/04/18 08:45:19;;;;;;;;;;;19.30;44.70;;;;;;4986413;28;19975;-53
2023/04/18 08:47:45;;;;;;;;;;;19.30;44.70;;;;;;4992940;28;19914;-54
2023/04/18 08:50:11;;;;;;;;;;;19.30;44.70;;;;;;4989256;28;19918;-53
2023/04/18 08:52:38;;;;;;;;;;;19.30;44.90;;;;;;4989235;28;19921;-53
2023/04/18 08:55:04;;;;;;;;;;;19.30;45.00;;;;;;4984031;28;19910;-53
2023/04/18 08:57:30;;;;;;;;;;;19.30;44.90;;;;;;4990899;28;19924;-53
2023/04/18 09:00:06;;;;;;;;;;;19.20;45.00;;;;;;4990075;28;20391;-53
2023/04/18 09:02:37;;;;;;;;;;;19.20;45.10;;;;;;5005731;28;19948;-53
2023/04/18 09:05:17;;;;;;;;;;;19.30;45.10;;;;;;4995484;28;20308;-53
2023/04/18 09:07:43;;;;;;;;;;;19.30;45.00;;;;;;4991862;28;20267;-53
2023/04/18 09:10:08;;;;;;;;;;;19.30;45.00;;;;;;4986750;28;19980;-53
2023/04/18 09:12:41;;;;;;;;;;;19.30;45.10;;;;;;4993299;28;19977;-53
2023/04/18 09:15:13;;;;;;;;;;;19.40;44.90;;;;;;4979908;28;21128;-53
2023/04/18 09:17:44;;;;;;;;;;;19.40;44.90;;;;;;4991910;28;19996;-53
2023/04/18 09:20:10;;;;;;;;;;;19.40;45.00;;;;;;4989219;28;19949;-53
2023/04/18 09:22:46;;;;;;;;;;;19.40;44.90;;;;;;4988804;28;20072;-54
2023/04/18 09:25:28;;;;;;;;;;;19.40;45.00;;;;;;4986889;28;20325;-53
2023/04/18 09:27:54;;;;;;;;;;;19.40;45.00;;;;;;4986214;28;19918;-53
2023/04/18 09:30:36;;;;;;;;;;;19.40;44.80;;;;;;4993386;28;19981;-53
2023/04/18 09:33:02;;;;;;;;;;;19.40;44.90;;;;;;4997124;28;19968;-53
2023/04/18 09:35:28;;;;;;;;;;;19.40;45.00;;;;;;4988353;28;20330;-54
2023/04/18 09:37:53;;;;;;;;;;;19.50;44.90;;;;;;4992400;28;19960;-54
2023/04/18 09:40:19;;;;;;;;;;;19.40;44.80;;;;;;4997100;28;19925;-52
2023/04/18 09:42:45;;;;;;;;;;;19.40;45.10;;;;;;4996705;28;19925;-54
2023/04/18 09:45:12;;;;;;;;;;;19.40;45.20;;;;;;4982225;28;19968;-54
2023/04/18 09:47:37;;;;;;;;;;;19.40;45.30;;;;;;4989469;28;19957;-54
2023/04/18 09:50:03;;;;;;;;;;;19.40;45.30;;;;;;4987545;28;19968;-54
2023/04/18 09:52:47;;;;;;;;;;;19.40;45.10;;;;;;4987648;28;19914;-53
2023/04/18 09:55:15;;;;;;;;;;;19.30;45.20;;;;;;4991347;28;19922;-53
2023/04/18 09:57:45;;;;;;;;;;;19.40;45.20;;;;;;4992429;28;19917;-54
2023/04/18 10:00:30;;;;;;;;;;;19.40;45.10;;;;;;4987998;28;20001;-53
2023/04/18 10:03:03;;;;;;;;;;;19.30;45.20;;;;;;4988377;28;19921;-53
2023/04/18 10:05:32;;;;;;;;;;;19.20;45.50;;;;;;4983371;28;19956;-54
2023/04/18 10:07:58;;;;;;;;;;;19.30;45.60;;;;;;4979905;28;19921;-54
2023/04/18 10:10:23;;;;;;;;;;;19.20;45.70;;;;;;4995699;28;19991;-54
2023/04/18 10:12:51;;;;;;;;;;;19.20;45.50;;;;;;4990076;28;19922;-56
2023/04/18 10:15:16;;;;;;;;;;;19.20;45.70;;;;;;4992872;28;20655;-54
2023/04/18 10:17:51;;;;;;;;;;;19.30;45.80;;;;;;5036797;28;19917;-54
2023/04/18 10:20:19;;;;;;;;;;;19.30;45.60;;;;;;4990116;28;20002;-53
2023/04/18 10:22:44;;;;;;;;;;;19.30;45.80;;;;;;4989720;28;20297;-54
2023/04/18 10:25:10;;;;;;;;;;;19.30;45.70;;;;;;4991656;28;19924;-54
2023/04/18 10:27:47;;;;;;;;;;;19.30;45.80;;;;;;4990577;28;19922;-55
2023/04/18 10:30:16;;;;;;;;;;;19.30;46.10;;;;;;4988818;28;19987;-55
2023/04/18 10:32:41;;;;;;;;;;;19.30;46.20;;;;;;4992581;28;20335;-54
2023/04/18 10:35:07;;;;;;;;;;;19.40;45.80;;;;;;4984139;28;19914;-53
2023/04/18 10:37:32;;;;;;;;;;;19.40;45.70;;;;;;4990967;28;19961;-54
2023/04/18 10:39:59;;;;;;;;;;;19.50;45.70;;;;;;4993306;28;19922;-52
2023/04/18 10:42:43;;;;;;;;;;;19.50;45.60;;;;;;4997291;28;19921;-54
2023/04/18 10:45:21;;;;;;;;;;;19.50;45.70;;;;;;4989474;28;20445;-54
2023/04/18 10:47:47;;;;;;;;;;;19.40;45.60;;;;;;4989355;28;19921;-54
2023/04/18 10:50:12;;;;;;;;;;;19.40;46.00;;;;;;4985970;28;19928;-54
2023/04/18 10:52:38;;;;;;;;;;;19.40;45.90;;;;;;4988440;28;19973;-54
2023/04/18 10:55:06;;;;;;;;;;;19.40;45.80;;;;;;4990186;28;19921;-53
2023/04/18 10:57:38;;;;;;;;;;;19.30;45.80;;;;;;4994919;28;19914;-54
2023/04/18 11:00:05;;;;;;;;;;;19.30;45.90;;;;;;4987998;28;20337;-53
2023/04/18 11:02:31;;;;;;;;;;;19.30;46.10;;;;;;4993169;28;20333;-53
2023/04/18 11:04:57;;;;;;;;;;;19.30;45.90;;;;;;4990009;28;20012;-53
2023/04/18 11:07:33;;;;;;;;;;;19.30;45.90;;;;;;5010628;28;20329;-54
2023/04/18 11:09:58;;;;;;;;;;;19.30;46.10;;;;;;4986353;28;19922;-53
2023/04/18 11:12:24;;;;;;;;;;;19.30;46.10;;;;;;4992446;28;20386;-53
2023/04/18 11:14:53;;;;;;;;;;;19.40;45.80;;;;;;5006031;28;19924;-53
2023/04/18 11:17:22;;;;;;;;;;;19.40;45.90;;;;;;4985556;28;19936;-53
2023/04/18 11:19:48;;;;;;;;;;;19.40;45.80;;;;;;4991068;28;19914;-53
2023/04/18 11:22:14;;;;;;;;;;;19.40;45.80;;;;;;4994007;28;19913;-53
2023/04/18 11:24:40;;;;;;;;;;;19.40;45.70;;;;;;5025516;28;19924;-53
2023/04/18 11:27:07;;;;;;;;;;;19.50;45.80;;;;;;4995990;28;19921;-53
2023/04/18 11:29:32;;;;;;;;;;;19.50;45.70;;;;;;4990466;28;20350;-53
2023/04/18 11:31:58;;;;;;;;;;;19.50;45.60;;;;;;4993867;28;21925;-53
2023/04/18 11:34:27;;;;;;;;;;;19.50;45.70;;;;;;4992728;28;19914;-53
2023/04/18 11:36:52;;;;;;;;;;;19.50;45.70;;;;;;4990364;28;19918;-54
2023/04/18 11:39:17;;;;;;;;;;;19.40;45.70;;;;;;4991352;28;20013;-52
2023/04/18 11:41:49;;;;;;;;;;;19.50;45.80;;;;;;4988000;28;19925;-54
2023/04/18 11:44:21;;;;;;;;;;;19.40;45.80;;;;;;4998252;28;19922;-54
2023/04/18 11:46:47;;;;;;;;;;;19.40;45.80;;;;;;4989717;28;20265;-54
2023/04/18 11:49:28;;;;;;;;;;;19.40;45.90;;;;;;4993012;28;19921;-53
2023/04/18 11:51:53;;;;;;;;;;;19.40;46.10;;;;;;4990241;28;19921;-53
2023/04/18 11:54:34;;;;;;;;;;;19.40;45.90;;;;;;4986228;28;19914;-53
2023/04/18 11:56:59;;;;;;;;;;;19.40;45.90;;;;;;4998417;28;19918;-53
2023/04/18 11:59:25;;;;;;;;;;;19.40;46.00;;;;;;4993261;28;19914;-53
2023/04/18 12:01:57;;;;;;;;;;;19.40;46.30;;;;;;4999767;28;20013;-54
2023/04/18 12:04:22;;;;;;;;;;;19.40;46.10;;;;;;5026954;28;20353;-54
2023/04/18 12:06:48;;;;;;;;;;;19.40;46.20;;;;;;5005166;28;19914;-53
2023/04/18 12:09:14;;;;;;;;;;;19.40;46.20;;;;;;4991796;28;19926;-54
2023/04/18 12:11:40;;;;;;;;;;;19.40;46.20;;;;;;4989406;28;20557;-53
2023/04/18 12:14:06;;;;;;;;;;;19.40;46.00;;;;;;4989183;28;19918;-54
2023/04/18 12:16:32;;;;;;;;;;;19.40;46.20;;;;;;4984709;28;20313;-53
2023/04/18 12:19:00;;;;;;;;;;;19.50;46.10;;;;;;4987219;28;19959;-55
2023/04/18 12:21:28;;;;;;;;;;;19.50;45.80;;;;;;4989387;28;19913;-54
2023/04/18 12:23:54;;;;;;;;;;;19.50;46.20;;;;;;4993055;28;19920;-52
2023/04/18 12:26:21;;;;;;;;;;;19.50;46.10;;;;;;4989567;28;19918;-53
2023/04/18 12:28:48;;;;;;;;;;;19.40;46.10;;;;;;4991067;28;19977;-54
2023/04/18 12:31:14;;;;;;;;;;;19.40;46.10;;;;;;4990608;28;19924;-53
2023/04/18 12:33:39;;;;;;;;;;;19.40;46.20;;;;;;4992630;28;19922;-53
2023/04/18 12:36:07;;;;;;;;;;;19.50;46.30;;;;;;4983319;28;20347;-53
2023/04/18 12:38:32;;;;;;;;;;;19.50;46.20;;;;;;4987289;28;19918;-53
2023/04/18 12:40:57;;;;;;;;;;;19.60;46.30;;;;;;4991868;28;19933;-53
2023/04/18 12:43:24;;;;;;;;;;;19.60;46.20;;;;;;4993242;28;19913;-53
2023/04/18 12:45:49;;;;;;;;;;;19.60;46.40;;;;;;4989689;28;19924;-53
2023/04/18 12:48:15;;;;;;;;;;;19.60;46.20;;;;;;4987364;28;20055;-54
2023/04/18 12:50:40;;;;;;;;;;;19.60;46.20;;;;;;4992119;28;20016;-53
2023/04/18 12:53:06;;;;;;;;;;;19.70;46.30;;;;;;4986846;28;19929;-53
2023/04/18 12:55:31;;;;;;;;;;;19.70;46.40;;;;;;4989438;28;19910;-53
2023/04/18 12:57:57;;;;;;;;;;;19.70;46.40;;;;;;4991008;28;20397;-54
2023/04/18 13:00:26;;;;;;;;;;;19.70;46.40;;;;;;4993334;28;20019;-53
2023/04/18 13:02:51;;;;;;;;;;;19.70;46.40;;;;;;4990630;28;20294;-53
2023/04/18 13:05:17;;;;;;;;;;;19.70;46.50;;;;;;4984948;28;19922;-54
2023/04/18 13:07:43;;;;;;;;;;;19.60;46.50;;;;;;4984468;28;20317;-54
2023/04/18 13:10:08;;;;;;;;;;;19.60;46.30;;;;;;4989414;28;19921;-53
2023/04/18 13:12:34;;;;;;;;;;;19.60;46.40;;;;;;4986646;28;20297;-54
2023/04/18 13:15:00;;;;;;;;;;;19.60;46.70;;;;;;4990238;28;19964;-54
2023/04/18 13:17:25;;;;;;;;;;;19.60;46.60;;;;;;4986345;28;19921;-53
2023/04/18 13:19:50;;;;;;;;;;;19.60;46.90;;;;;;4984377;28;20012;-53
2023/04/18 13:22:19;;;;;;;;;;;19.60;46.90;;;;;;4983822;28;19914;-54
2023/04/18 13:24:44;;;;;;;;;;;19.60;47.00;;;;;;4997214;28;19999;-53
2023/04/18 13:27:10;;;;;;;;;;;19.60;46.90;;;;;;4995619;28;20031;-53
2023/04/18 13:29:37;;;;;;;;;;;19.50;46.80;;;;;;4991417;28;19925;-53
2023/04/18 13:32:02;;;;;;;;;;;19.50;46.90;;;;;;4990224;28;20518;-53
2023/04/18 13:34:28;;;;;;;;;;;19.50;47.00;;;;;;4988117;28;19918;-53
2023/04/18 13:36:53;;;;;;;;;;;19.50;47.20;;;;;;4986489;28;19917;-54
2023/04/18 13:39:19;;;;;;;;;;;19.50;46.90;;;;;;4987559;28;19925;-53
2023/04/18 13:41:44;;;;;;;;;;;19.50;46.90;;;;;;4989766;28;19933;-54
2023/04/18 13:44:10;;;;;;;;;;;19.40;47.00;;;;;;4987549;28;20246;-55
2023/04/18 13:46:35;;;;;;;;;;;19.50;47.10;;;;;;4988525;28;19914;-54
2023/04/18 13:49:01;;;;;;;;;;;19.50;47.00;;;;;;4995655;28;19918;-54
2023/04/18 13:51:26;;;;;;;;;;;19.50;46.80;;;;;;4993316;28;19968;-54
2023/04/18 13:53:52;;;;;;;;;;;19.60;46.70;;;;;;4989863;28;19922;-55
2023/04/18 13:56:17;;;;;;;;;;;19.60;46.80;;;;;;4987124;28;19921;-54
2023/04/18 13:58:42;;;;;;;;;;;19.60;47.10;;;;;;4993315;28;19928;-54
2023/04/18 14:01:08;;;;;;;;;;;19.70;46.90;;;;;;4991825;28;20112;-55
2023/04/18 14:03:34;;;;;;;;;;;19.70;46.70;;;;;;4993174;28;19917;-54
2023/04/18 14:05:59;;;;;;;;;;;19.70;46.70;;;;;;4990199;28;20369;-55
2023/04/18 14:08:25;;;;;;;;;;;19.70;46.60;;;;;;4985896;28;19922;-55
2023/04/18 14:10:50;;;;;;;;;;;19.70;46.50;;;;;;5026592;28;19914;-55